Time;durP1;ratioP1;P1;durP2;ratioP2;P2;SDS_P1;SDS_P2;PMS_P1;PMS_P2;Temp;Humidity;BMP_temperature;BMP_pressure;BME280_temperature;BME280_humidity;BME280_pressure;Samples;Min_cycle;Max_cycle;Signal;HPM_P1;HPM_P2
2023/12/17 00:00:57;;;;;;;;;;;10.40;99.90;;;;;;5022477;28;20079;-71
2023/12/17 00:03:22;;;;;;;1999.90;999.90;;;10.30;99.90;;;;;;5021055;28;19906;-71
2023/12/17 00:05:48;;;;;;;1999.90;999.90;;;10.30;99.90;;;;;;5016787;28;20096;-71
2023/12/17 00:08:19;;;;;;;1999.90;999.90;;;10.30;99.90;;;;;;5029725;28;20030;-71
2023/12/17 00:10:45;;;;;;;1999.90;999.90;;;10.30;99.90;;;;;;5036053;28;20029;-71
2023/12/17 00:13:11;;;;;;;1999.90;999.90;;;10.30;99.90;;;;;;5034264;28;20124;-71
2023/12/17 00:15:37;;;;;;;1999.90;999.90;;;10.30;99.90;;;;;;5031567;28;20097;-71
2023/12/17 00:18:03;;;;;;;1999.90;999.90;;;10.40;99.90;;;;;;5016498;28;20018;-70
2023/12/17 00:20:29;;;;;;;;;;;10.30;99.90;;;;;;5030707;28;20033;-71
2023/12/17 00:22:55;;;;;;;1999.90;999.90;;;10.40;99.90;;;;;;5025740;28;19913;-71
2023/12/17 00:25:21;;;;;;;1999.90;999.90;;;10.40;99.90;;;;;;5034931;28;20041;-71
2023/12/17 00:27:46;;;;;;;1999.90;999.90;;;10.40;99.90;;;;;;5020346;28;20106;-71
2023/12/17 00:30:12;;;;;;;1999.90;999.90;;;10.40;99.90;;;;;;5034762;28;20029;-71
2023/12/17 00:32:38;;;;;;;1999.90;999.90;;;10.40;99.90;;;;;;5034168;28;20301;-71
2023/12/17 00:35:04;;;;;;;1999.90;999.90;;;10.40;99.90;;;;;;5034669;28;20053;-71
2023/12/17 00:37:30;;;;;;;1999.90;999.90;;;10.30;99.90;;;;;;5034580;28;20306;-71
2023/12/17 00:39:55;;;;;;;1999.90;999.90;;;10.40;99.90;;;;;;5033992;28;20033;-71
2023/12/17 00:42:21;;;;;;;1999.90;999.90;;;10.30;99.90;;;;;;5034258;28;20052;-71
2023/12/17 00:44:47;;;;;;;1999.90;999.90;;;10.30;99.90;;;;;;5033974;28;20142;-71
2023/12/17 00:47:13;;;;;;;1999.90;999.90;;;10.30;99.90;;;;;;5032902;28;20375;-71
2023/12/17 00:49:38;;;;;;;1999.90;999.90;;;10.30;99.90;;;;;;5033742;28;20072;-71
2023/12/17 00:52:04;;;;;;;1999.90;999.90;;;10.30;99.90;;;;;;5034385;28;20045;-71
2023/12/17 00:54:30;;;;;;;1999.90;999.90;;;10.30;99.90;;;;;;5032251;28;20103;-71
2023/12/17 00:56:56;;;;;;;1999.90;999.90;;;10.30;99.90;;;;;;5030000;28;20075;-71
2023/12/17 00:59:21;;;;;;;1999.90;999.90;;;10.30;99.90;;;;;;5034261;28;20043;-71
2023/12/17 01:01:47;;;;;;;1999.90;999.90;;;10.30;99.90;;;;;;5032759;28;20025;-71
2023/12/17 01:04:13;;;;;;;1999.90;999.90;;;10.30;99.90;;;;;;5038357;28;20033;-71
2023/12/17 01:06:39;;;;;;;1999.90;999.90;;;10.20;99.90;;;;;;5044464;28;20029;-71
2023/12/17 01:09:04;;;;;;;1999.90;999.90;;;10.30;99.90;;;;;;5047980;28;20029;-71
2023/12/17 01:11:30;;;;;;;1999.90;999.90;;;10.20;99.90;;;;;;5033665;28;20100;-71
2023/12/17 01:13:56;;;;;;;1999.90;999.90;;;10.20;99.90;;;;;;5033740;28;20328;-71
2023/12/17 01:16:21;;;;;;;1999.90;999.90;;;10.20;99.90;;;;;;5038115;28;20416;-71
2023/12/17 01:18:47;;;;;;;1999.90;999.90;;;10.20;99.90;;;;;;5031002;28;20189;-71
2023/12/17 01:21:13;;;;;;;1999.90;999.90;;;10.20;99.90;;;;;;5034641;28;20313;-71
2023/12/17 01:23:38;;;;;;;1999.90;999.90;;;10.20;99.90;;;;;;5031737;28;20060;-71
2023/12/17 01:26:05;;;;;;;1999.90;999.90;;;10.20;99.90;;;;;;5033154;28;20021;-71
2023/12/17 01:28:30;;;;;;;1999.90;999.90;;;10.20;99.90;;;;;;5033679;28;20040;-71
2023/12/17 01:30:56;;;;;;;1999.90;999.90;;;10.20;99.90;;;;;;5032111;28;20026;-71
2023/12/17 01:33:22;;;;;;;1999.90;999.90;;;10.20;99.90;;;;;;5032762;28;20032;-71
2023/12/17 01:35:47;;;;;;;1999.90;999.90;;;10.20;99.90;;;;;;5033987;28;20021;-71
2023/12/17 01:38:13;;;;;;;1999.90;999.90;;;10.20;99.90;;;;;;5032429;28;20321;-71
2023/12/17 01:40:39;;;;;;;1999.90;999.90;;;10.10;99.90;;;;;;5033903;28;20049;-71
2023/12/17 01:43:08;;;;;;;1999.90;999.90;;;10.20;99.90;;;;;;5027496;28;20075;-71
2023/12/17 01:45:34;;;;;;;1999.90;999.90;;;10.20;99.90;;;;;;5033822;28;20033;-71
2023/12/17 01:48:01;;;;;;;1999.90;999.90;;;10.10;99.90;;;;;;5031464;28;20033;-71
2023/12/17 01:50:28;;;;;;;1999.90;999.90;;;10.20;99.90;;;;;;5025507;28;20084;-71
2023/12/17 01:52:54;;;;;;;;;;;10.10;99.90;;;;;;5021159;28;20029;-71
2023/12/17 01:55:21;;;;;;;1999.90;999.90;;;10.10;99.90;;;;;;5034636;28;19909;-71
2023/12/17 01:57:46;;;;;;;1999.90;999.90;;;10.10;99.90;;;;;;5022610;28;20037;-71
2023/12/17 02:00:13;;;;;;;1999.90;999.90;;;10.10;99.90;;;;;;5032878;28;20080;-71
2023/12/17 02:02:39;;;;;;;1999.90;999.90;;;10.10;99.90;;;;;;5029551;28;20026;-71
2023/12/17 02:05:06;;;;;;;1999.90;999.90;;;10.10;99.90;;;;;;5022080;28;20069;-71
2023/12/17 02:07:32;;;;;;;1999.90;999.90;;;10.10;99.90;;;;;;5028973;28;20420;-71
2023/12/17 02:09:58;;;;;;;1999.90;999.90;;;10.10;99.90;;;;;;5030645;28;20100;-71
2023/12/17 02:12:29;;;;;;;1999.90;999.90;;;10.20;99.90;;;;;;5038988;28;20105;-71
2023/12/17 02:14:54;;;;;;;1999.90;999.90;;;10.10;99.90;;;;;;5030742;28;20395;-71
2023/12/17 02:17:31;;;;;;;1999.90;999.90;;;10.10;99.90;;;;;;5042919;28;20035;-71
2023/12/17 02:19:57;;;;;;;1999.90;999.90;;;10.10;99.90;;;;;;5031322;28;20040;-71
2023/12/17 02:22:24;;;;;;;1999.90;999.90;;;10.20;99.90;;;;;;5033001;28;20033;-71
2023/12/17 02:24:53;;;;;;;1999.90;999.90;;;10.10;99.90;;;;;;5031353;28;20105;-71
2023/12/17 02:27:23;;;;;;;1999.90;999.90;;;10.10;99.90;;;;;;5025541;28;20120;-71
2023/12/17 02:29:50;;;;;;;1999.90;999.90;;;10.10;99.90;;;;;;5040016;28;20101;-71
2023/12/17 02:32:21;;;;;;;1999.90;999.90;;;10.10;99.90;;;;;;5036075;28;20083;-71
2023/12/17 02:34:47;;;;;;;1999.90;999.90;;;10.10;99.90;;;;;;5026217;28;20030;-71
2023/12/17 02:37:13;;;;;;;1999.90;999.90;;;10.10;99.90;;;;;;5037014;28;20038;-71
2023/12/17 02:39:39;;;;;;;1999.90;999.90;;;10.10;99.90;;;;;;5042007;28;20273;-71
2023/12/17 02:42:05;;;;;;;1999.90;999.90;;;10.10;99.90;;;;;;5042777;28;20046;-71
2023/12/17 02:44:30;;;;;;;1999.90;999.90;;;10.10;99.90;;;;;;5045796;28;20056;-71
2023/12/17 02:46:57;;;;;;;1999.90;999.90;;;10.10;99.90;;;;;;5042739;28;20061;-71
2023/12/17 02:49:24;;;;;;;1999.90;999.90;;;10.10;99.90;;;;;;5028490;28;20025;-71
2023/12/17 02:51:50;;;;;;;1999.90;999.90;;;10.10;99.90;;;;;;5036493;28;20076;-71
2023/12/17 02:54:17;;;;;;;1999.90;999.90;;;10.10;99.90;;;;;;5023189;28;20034;-71
2023/12/17 02:56:43;;;;;;;1999.90;999.90;;;10.10;99.90;;;;;;5035227;28;20416;-71
2023/12/17 02:59:11;;;;;;;1999.90;999.90;;;10.10;99.90;;;;;;5024802;28;20044;-71
2023/12/17 03:01:40;;;;;;;1999.90;999.90;;;10.10;99.90;;;;;;5035565;28;20025;-71
2023/12/17 03:04:06;;;;;;;1999.90;999.90;;;10.10;99.90;;;;;;5036181;28;20033;-71
2023/12/17 03:06:31;;;;;;;1999.90;999.90;;;10.10;99.90;;;;;;5022212;28;20026;-71
2023/12/17 03:08:57;;;;;;;1999.90;999.90;;;10.10;99.90;;;;;;5028058;28;20060;-71
2023/12/17 03:11:23;;;;;;;1999.90;999.90;;;10.10;99.90;;;;;;5035706;28;20483;-71
2023/12/17 03:13:49;;;;;;;1999.90;999.90;;;10.10;99.90;;;;;;5035982;28;20265;-71
2023/12/17 03:16:15;;;;;;;1999.90;999.90;;;10.10;99.90;;;;;;5035776;28;20025;-71
2023/12/17 03:18:40;;;;;;;1999.90;999.90;;;10.10;99.90;;;;;;5029595;28;20036;-71
2023/12/17 03:21:07;;;;;;;1999.90;999.90;;;10.10;99.90;;;;;;5035360;28;20025;-71
2023/12/17 03:23:33;;;;;;;1999.90;999.90;;;10.10;99.90;;;;;;5033919;28;20093;-71
2023/12/17 03:25:59;;;;;;;1999.90;999.90;;;10.10;99.90;;;;;;5027238;28;20100;-71
2023/12/17 03:28:25;;;;;;;1999.90;999.90;;;10.10;99.90;;;;;;5016317;28;20412;-71
2023/12/17 03:30:50;;;;;;;1999.90;999.90;;;10.10;99.90;;;;;;5036465;28;20029;-71
2023/12/17 03:33:16;;;;;;;1999.90;999.90;;;10.10;99.90;;;;;;5035907;28;20487;-71
2023/12/17 03:35:42;;;;;;;1999.90;999.90;;;10.10;99.90;;;;;;5034492;28;20026;-71
2023/12/17 03:38:07;;;;;;;1999.90;999.90;;;10.20;99.90;;;;;;5036215;28;20049;-71
2023/12/17 03:40:33;;;;;;;1999.90;999.90;;;10.20;99.90;;;;;;5034987;28;20040;-71
2023/12/17 03:43:01;;;;;;;1999.90;999.90;;;10.20;99.90;;;;;;5030449;28;20111;-71
2023/12/17 03:45:26;;;;;;;1999.90;999.90;;;10.20;99.90;;;;;;5033786;28;20034;-71
2023/12/17 03:47:52;;;;;;;1999.90;999.90;;;10.10;99.90;;;;;;5035972;28;20105;-71
2023/12/17 03:50:19;;;;;;;1999.90;999.90;;;10.20;99.90;;;;;;5033060;28;20030;-71
2023/12/17 03:52:46;;;;;;;;;;;10.10;99.90;;;;;;5038081;28;20092;-71
2023/12/17 03:55:13;;;;;;;1999.90;999.90;;;10.10;99.90;;;;;;5042923;28;20377;-71
2023/12/17 03:57:38;;;;;;;1999.90;999.90;;;10.10;99.90;;;;;;5032267;28;20036;-71
2023/12/17 04:00:04;;;;;;;1999.90;999.90;;;10.10;99.90;;;;;;5038797;28;20033;-71
2023/12/17 04:02:31;;;;;;;1999.90;999.90;;;10.10;99.90;;;;;;5018925;28;20036;-71
2023/12/17 04:04:57;;;;;;;1999.90;999.90;;;10.10;99.90;;;;;;5043409;28;20053;-71
2023/12/17 04:07:22;;;;;;;1999.90;999.90;;;10.10;99.90;;;;;;5034385;28;20494;-71
2023/12/17 04:09:48;;;;;;;1999.90;999.90;;;10.00;99.90;;;;;;5034813;28;20025;-71
2023/12/17 04:12:14;;;;;;;1999.90;999.90;;;10.00;99.90;;;;;;5029674;28;20026;-71
2023/12/17 04:14:40;;;;;;;1999.90;999.90;;;10.00;99.90;;;;;;5028888;28;20416;-70
2023/12/17 04:17:07;;;;;;;1999.90;999.90;;;10.00;99.90;;;;;;5034445;28;20112;-71
2023/12/17 04:19:33;;;;;;;1999.90;999.90;;;10.00;99.90;;;;;;5035154;28;20068;-71
2023/12/17 04:21:58;;;;;;;1999.90;999.90;;;10.10;99.90;;;;;;5035674;28;20052;-71
2023/12/17 04:24:24;;;;;;;1999.90;999.90;;;10.00;99.90;;;;;;5041940;28;20372;-71
2023/12/17 04:26:50;;;;;;;1999.90;999.90;;;10.00;99.90;;;;;;5035971;28;20447;-71
2023/12/17 04:29:16;;;;;;;1999.90;999.90;;;10.00;99.90;;;;;;5046779;28;20024;-71
2023/12/17 04:31:41;;;;;;;1999.90;999.90;;;10.00;99.90;;;;;;5039429;28;20032;-71
2023/12/17 04:34:08;;;;;;;1999.90;999.90;;;10.00;99.90;;;;;;5045979;28;20426;-71
2023/12/17 04:36:34;;;;;;;1999.90;999.90;;;10.00;99.90;;;;;;5039834;28;20037;-70
2023/12/17 04:39:00;;;;;;;1999.90;999.90;;;10.00;99.90;;;;;;5039837;28;20030;-71
2023/12/17 04:41:26;;;;;;;1999.90;999.90;;;10.00;99.90;;;;;;5041954;28;20060;-71
2023/12/17 04:43:52;;;;;;;1999.90;999.90;;;10.00;99.90;;;;;;5039162;28;20025;-71
2023/12/17 04:46:18;;;;;;;1999.90;999.90;;;10.00;99.90;;;;;;5032074;28;20030;-70
2023/12/17 04:48:44;;;;;;;1999.90;999.90;;;10.10;99.90;;;;;;5017510;28;20424;-71
2023/12/17 04:51:10;;;;;;;1999.90;999.90;;;10.10;99.90;;;;;;5039714;28;20032;-71
2023/12/17 04:53:36;;;;;;;1999.90;999.90;;;10.00;99.90;;;;;;5047023;28;20024;-71
2023/12/17 04:56:02;;;;;;;1999.90;999.90;;;10.00;99.90;;;;;;5044069;28;20025;-71
2023/12/17 04:58:28;;;;;;;1999.90;999.90;;;10.00;99.90;;;;;;5043382;28;20363;-71
2023/12/17 05:00:58;;;;;;;1999.90;999.90;;;10.00;99.90;;;;;;5035878;28;20087;-71
2023/12/17 05:03:25;;;;;;;1999.90;999.90;;;10.00;99.90;;;;;;5034794;28;20492;-71
2023/12/17 05:05:51;;;;;;;1999.90;999.90;;;10.00;99.90;;;;;;5032842;28;20033;-70
2023/12/17 05:08:17;;;;;;;1999.90;999.90;;;10.00;99.90;;;;;;5033333;28;20087;-71
2023/12/17 05:10:43;;;;;;;1999.90;999.90;;;10.00;99.90;;;;;;5033808;28;20037;-70
2023/12/17 05:13:08;;;;;;;1999.90;999.90;;;9.90;99.90;;;;;;5025331;28;20035;-71
2023/12/17 05:15:34;;;;;;;1999.90;999.90;;;9.90;99.90;;;;;;5025781;28;20030;-71
2023/12/17 05:18:00;;;;;;;1999.90;999.90;;;9.90;99.90;;;;;;5033599;28;20416;-71
2023/12/17 05:20:26;;;;;;;1999.90;999.90;;;9.90;99.90;;;;;;5028315;28;20076;-71
2023/12/17 05:22:52;;;;;;;1999.90;999.90;;;9.90;99.90;;;;;;5033900;28;20029;-71
2023/12/17 05:25:17;;;;;;;1999.90;999.90;;;9.90;99.90;;;;;;5032360;28;20022;-71
2023/12/17 05:27:43;;;;;;;1999.90;999.90;;;9.90;99.90;;;;;;5030647;28;20056;-71
2023/12/17 05:30:09;;;;;;;1999.90;999.90;;;9.90;99.90;;;;;;5033175;28;20068;-71
2023/12/17 05:32:35;;;;;;;1999.90;999.90;;;9.80;99.90;;;;;;5033513;28;20710;-71
2023/12/17 05:35:01;;;;;;;1999.90;999.90;;;9.80;99.90;;;;;;5026096;28;20056;-71
2023/12/17 05:37:26;;;;;;;1999.90;999.90;;;9.90;99.90;;;;;;5033092;28;20079;-71
2023/12/17 05:39:52;;;;;;;1999.90;999.90;;;9.90;99.90;;;;;;5033149;28;20104;-71
2023/12/17 05:42:18;;;;;;;1999.90;999.90;;;9.90;99.90;;;;;;5032898;28;20042;-71
2023/12/17 05:44:43;;;;;;;1999.90;999.90;;;9.90;99.90;;;;;;5025946;28;20037;-70
2023/12/17 05:47:09;;;;;;;1999.90;999.90;;;9.90;99.90;;;;;;5028735;28;20029;-71
2023/12/17 05:49:39;;;;;;;1999.90;999.90;;;9.80;99.90;;;;;;5029953;28;20033;-71
2023/12/17 05:52:05;;;;;;;1999.90;999.90;;;9.80;99.90;;;;;;5027031;28;20034;-71
2023/12/17 05:54:31;;;;;;;1999.90;999.90;;;9.80;99.90;;;;;;5032908;28;20355;-71
2023/12/17 05:56:57;;;;;;;1999.90;999.90;;;9.80;99.90;;;;;;5032248;28;20041;-71
2023/12/17 05:59:23;;;;;;;1999.90;999.90;;;9.80;99.90;;;;;;5029510;28;20064;-71
2023/12/17 06:01:49;;;;;;;1999.90;999.90;;;9.80;99.90;;;;;;5031162;28;20432;-71
2023/12/17 06:04:15;;;;;;;1999.90;999.90;;;9.80;99.90;;;;;;5032875;28;20041;-70
2023/12/17 06:06:40;;;;;;;1999.90;999.90;;;9.80;99.90;;;;;;5028402;28;20124;-71
2023/12/17 06:09:07;;;;;;;1999.90;999.90;;;9.80;99.90;;;;;;5033294;28;20036;-70
2023/12/17 06:11:33;;;;;;;1999.90;999.90;;;9.80;99.90;;;;;;5032781;28;20025;-70
2023/12/17 06:13:59;;;;;;;1999.90;999.90;;;9.80;99.90;;;;;;5032070;28;20037;-71
2023/12/17 06:16:25;;;;;;;1999.90;999.90;;;9.90;99.90;;;;;;5025979;28;20029;-71
2023/12/17 06:18:53;;;;;;;1999.90;999.90;;;9.80;99.90;;;;;;5037131;28;20116;-71
2023/12/17 06:21:26;;;;;;;1999.90;999.90;;;9.80;99.90;;;;;;5032343;28;20037;-70
2023/12/17 06:23:57;;;;;;;1999.90;999.90;;;9.90;99.90;;;;;;5035728;28;20033;-71
2023/12/17 06:26:26;;;;;;;1999.90;999.90;;;9.90;99.90;;;;;;5029005;28;20091;-71
2023/12/17 06:28:52;;;;;;;1999.90;999.90;;;9.90;99.90;;;;;;5033778;28;20036;-71
2023/12/17 06:31:17;;;;;;;1999.90;999.90;;;9.90;99.90;;;;;;5033580;28;20029;-71
2023/12/17 06:33:43;;;;;;;1999.90;999.90;;;9.90;99.90;;;;;;5030639;28;20055;-71
2023/12/17 06:36:09;;;;;;;1999.90;999.90;;;9.90;99.90;;;;;;5029437;28;20033;-71
2023/12/17 06:38:35;;;;;;;1999.90;999.90;;;9.90;99.90;;;;;;5040484;28;20026;-71
2023/12/17 06:41:01;;;;;;;1999.90;999.90;;;9.90;99.90;;;;;;5030431;28;20049;-71
2023/12/17 06:43:26;;;;;;;1999.90;999.90;;;9.90;99.90;;;;;;5037552;28;20488;-71
2023/12/17 06:45:52;;;;;;;1999.90;999.90;;;9.90;99.90;;;;;;5037520;28;20075;-70
2023/12/17 06:48:18;;;;;;;1999.90;999.90;;;9.90;99.90;;;;;;5030900;28;20124;-71
2023/12/17 06:50:44;;;;;;;1999.90;999.90;;;9.90;99.90;;;;;;5033342;28;20018;-71
2023/12/17 06:53:15;;;;;;;1999.90;999.90;;;9.90;99.90;;;;;;5032978;28;20029;-71
2023/12/17 06:55:42;;;;;;;1999.90;999.90;;;9.90;99.90;;;;;;5027580;28;20032;-71
2023/12/17 06:58:07;;;;;;;;;;;9.90;99.90;;;;;;5038506;28;20104;-71
2023/12/17 07:00:34;;;;;;;1999.90;999.90;;;9.90;99.90;;;;;;5028910;28;20007;-71
2023/12/17 07:03:00;;;;;;;1999.90;999.90;;;9.90;99.90;;;;;;5035129;28;20358;-70
2023/12/17 07:05:26;;;;;;;1999.90;999.90;;;9.80;99.90;;;;;;5033370;28;20048;-71
2023/12/17 07:07:52;;;;;;;1999.90;999.90;;;9.90;99.90;;;;;;5030320;28;20312;-71
2023/12/17 07:10:18;;;;;;;1999.90;999.90;;;9.80;99.90;;;;;;5035521;28;20025;-71
2023/12/17 07:12:43;;;;;;;1999.90;999.90;;;9.80;99.90;;;;;;5034465;28;20376;-71
2023/12/17 07:15:10;;;;;;;1999.90;999.90;;;9.80;99.90;;;;;;5041059;28;20033;-71
2023/12/17 07:17:35;;;;;;;1999.90;999.90;;;9.80;99.90;;;;;;5039451;28;20029;-71
2023/12/17 07:20:01;;;;;;;1999.90;999.90;;;9.80;99.90;;;;;;5042244;28;20114;-71
2023/12/17 07:22:27;;;;;;;1999.90;999.90;;;9.80;99.90;;;;;;5038206;28;20071;-71
2023/12/17 07:24:53;;;;;;;1999.90;999.90;;;9.80;99.90;;;;;;5040311;28;20439;-71
2023/12/17 07:27:18;;;;;;;1999.90;999.90;;;9.80;99.90;;;;;;5039894;28;20039;-71
2023/12/17 07:29:44;;;;;;;1999.90;999.90;;;9.80;99.90;;;;;;5041910;28;20041;-70
2023/12/17 07:32:10;;;;;;;1999.90;999.90;;;9.80;99.90;;;;;;5036569;28;20051;-71
2023/12/17 07:34:35;;;;;;;1999.90;999.90;;;9.80;99.90;;;;;;5031991;28;20021;-71
2023/12/17 07:37:01;;;;;;;1999.90;999.90;;;9.80;99.90;;;;;;5030087;28;20044;-71
2023/12/17 07:39:27;;;;;;;1999.90;999.90;;;9.80;99.90;;;;;;5038722;28;20036;-71
2023/12/17 07:41:53;;;;;;;1999.90;999.90;;;9.70;99.90;;;;;;5045874;28;20051;-71
2023/12/17 07:44:19;;;;;;;1999.90;999.90;;;9.80;99.90;;;;;;5049244;28;20029;-71
2023/12/17 07:46:44;;;;;;;1999.90;999.90;;;9.70;99.90;;;;;;5045908;28;20132;-71
2023/12/17 07:49:10;;;;;;;1999.90;999.90;;;9.70;99.90;;;;;;5037376;28;20033;-71
2023/12/17 07:51:38;;;;;;;1999.90;999.90;;;9.80;99.90;;;;;;5035268;28;20033;-71
2023/12/17 07:54:05;;;;;;;1999.90;999.90;;;9.80;99.90;;;;;;5035549;28;20271;-71
2023/12/17 07:56:32;;;;;;;1999.90;999.90;;;9.70;99.90;;;;;;5045225;28;20312;-71
2023/12/17 07:58:58;;;;;;;1999.90;999.90;;;9.70;99.90;;;;;;5029444;28;20014;-71
2023/12/17 08:01:28;;;;;;;1999.90;999.90;;;9.70;99.90;;;;;;5045856;28;20594;-71
2023/12/17 08:03:53;;;;;;;1999.90;999.90;;;9.70;99.90;;;;;;5034944;28;20116;-71
2023/12/17 08:06:19;;;;;;;1999.90;999.90;;;9.70;99.90;;;;;;5037360;28;20160;-71
2023/12/17 08:08:44;;;;;;;1999.90;999.90;;;9.70;99.90;;;;;;5035367;28;20025;-70
2023/12/17 08:11:12;;;;;;;1999.90;999.90;;;9.70;99.90;;;;;;5031828;28;20041;-71
2023/12/17 08:13:37;;;;;;;1999.90;999.90;;;9.70;99.90;;;;;;5036377;28;20022;-71
2023/12/17 08:16:03;;;;;;;1999.90;999.90;;;9.70;99.90;;;;;;5034714;28;20332;-71
2023/12/17 08:18:29;;;;;;;1999.90;999.90;;;9.70;99.90;;;;;;5036106;28;20021;-71
2023/12/17 08:20:55;;;;;;;1999.90;999.90;;;9.70;99.90;;;;;;5030300;28;20412;-71
2023/12/17 08:23:21;;;;;;;1999.90;999.90;;;9.70;99.90;;;;;;5032286;28;20049;-70
2023/12/17 08:25:46;;;;;;;1999.90;999.90;;;9.70;99.90;;;;;;5028156;28;20368;-71
2023/12/17 08:28:12;;;;;;;1999.90;999.90;;;9.70;99.90;;;;;;5028470;28;20029;-71
2023/12/17 08:30:39;;;;;;;1999.90;999.90;;;9.70;99.90;;;;;;5034425;28;20033;-71
2023/12/17 08:33:05;;;;;;;1999.90;999.90;;;9.70;99.90;;;;;;5028907;28;20087;-70
2023/12/17 08:35:31;;;;;;;1999.90;999.90;;;9.70;99.90;;;;;;5034455;28;20347;-71
2023/12/17 08:38:03;;;;;;;1999.90;999.90;;;9.60;99.90;;;;;;5030052;28;20030;-71
2023/12/17 08:40:30;;;;;;;1999.90;999.90;;;9.60;99.90;;;;;;5029982;28;20116;-71
2023/12/17 08:42:56;;;;;;;1999.90;999.90;;;9.60;99.90;;;;;;5032206;28;20061;-71
2023/12/17 08:45:22;;;;;;;1999.90;999.90;;;9.60;99.90;;;;;;5029657;28;20057;-71
2023/12/17 08:47:48;;;;;;;1999.90;999.90;;;9.60;99.90;;;;;;5035518;28;20021;-71
2023/12/17 08:50:13;;;;;;;1999.90;999.90;;;9.60;99.90;;;;;;5025731;28;20034;-70
2023/12/17 08:52:39;;;;;;;1999.90;999.90;;;9.60;99.90;;;;;;5030154;28;20029;-70
2023/12/17 08:55:06;;;;;;;1999.90;999.90;;;9.60;99.90;;;;;;5039056;28;20434;-70
2023/12/17 08:57:31;;;;;;;1999.90;999.90;;;9.60;99.90;;;;;;5036171;28;20297;-70
2023/12/17 08:59:57;;;;;;;1999.90;999.90;;;9.60;99.90;;;;;;5041187;28;20039;-71
2023/12/17 09:02:23;;;;;;;1999.90;999.90;;;9.50;99.90;;;;;;5036451;28;20104;-70
2023/12/17 09:04:51;;;;;;;1999.90;999.90;;;9.60;99.90;;;;;;5031469;28;20064;-71
2023/12/17 09:07:17;;;;;;;1999.90;999.90;;;9.50;99.90;;;;;;5029335;28;20022;-71
2023/12/17 09:09:43;;;;;;;1999.90;999.90;;;9.50;99.90;;;;;;5034408;28;20025;-71
2023/12/17 09:12:09;;;;;;;1999.90;999.90;;;9.50;99.90;;;;;;5036875;28;20033;-70
2023/12/17 09:14:35;;;;;;;1999.90;999.90;;;9.50;99.90;;;;;;5037319;28;20033;-71
2023/12/17 09:17:01;;;;;;;;;;;9.50;99.90;;;;;;5044278;28;20033;-71
2023/12/17 09:19:27;;;;;;;1999.90;999.90;;;9.40;99.90;;;;;;5040996;28;19909;-71
2023/12/17 09:21:53;;;;;;;1999.90;999.90;;;9.40;99.90;;;;;;5035293;28;20032;-71
2023/12/17 09:24:20;;;;;;;1999.90;999.90;;;9.40;99.90;;;;;;5038350;28;20037;-71
2023/12/17 09:26:45;;;;;;;1999.90;999.90;;;9.40;99.90;;;;;;5033743;28;20036;-70
2023/12/17 09:29:11;;;;;;;1999.90;999.90;;;9.40;99.90;;;;;;5031809;28;20038;-70
2023/12/17 09:31:37;;;;;;;1999.90;999.90;;;9.40;99.90;;;;;;5022519;28;20018;-71
2023/12/17 09:34:02;;;;;;;1999.90;999.90;;;9.40;99.90;;;;;;5034225;28;20021;-70
2023/12/17 09:36:28;;;;;;;1999.90;999.90;;;9.40;99.90;;;;;;5037267;28;20025;-70
2023/12/17 09:38:54;;;;;;;1999.90;999.90;;;9.40;99.90;;;;;;5034030;28;20025;-71
2023/12/17 09:41:20;;;;;;;1999.90;999.90;;;9.40;99.90;;;;;;5030206;28;20333;-71
2023/12/17 09:43:46;;;;;;;1999.90;999.90;;;9.40;99.90;;;;;;5032359;28;20028;-71
2023/12/17 09:46:13;;;;;;;1999.90;999.90;;;9.40;99.90;;;;;;5029935;28;20062;-70
2023/12/17 09:48:39;;;;;;;1999.90;999.90;;;9.40;99.90;;;;;;5039786;28;20071;-71
2023/12/17 09:51:05;;;;;;;1999.90;999.90;;;9.40;99.90;;;;;;5021404;28;20417;-70
2023/12/17 09:53:32;;;;;;;1999.90;999.90;;;9.40;99.90;;;;;;5040972;28;20112;-71
2023/12/17 09:55:58;;;;;;;1999.90;999.90;;;9.40;99.90;;;;;;5035165;28;20029;-71
2023/12/17 09:58:26;;;;;;;1999.90;999.90;;;9.40;99.90;;;;;;5031815;28;20425;-71
2023/12/17 10:00:52;;;;;;;1999.90;999.90;;;9.30;99.90;;;;;;5027281;28;20029;-70
2023/12/17 10:03:19;;;;;;;1999.90;999.90;;;9.30;99.90;;;;;;5032885;28;20653;-71
2023/12/17 10:05:54;;;;;;;1999.90;999.90;;;9.30;99.90;;;;;;5032885;28;20128;-71
2023/12/17 10:08:20;;;;;;;1999.90;999.90;;;9.30;99.90;;;;;;5030787;28;20029;-71
2023/12/17 10:10:46;;;;;;;1999.90;999.90;;;9.30;99.90;;;;;;5033248;28;20039;-71
2023/12/17 10:13:21;;;;;;;1999.90;999.90;;;9.30;99.90;;;;;;5026928;28;20030;-71
2023/12/17 10:15:51;;;;;;;1999.90;999.90;;;9.20;99.90;;;;;;5032785;28;20025;-71
2023/12/17 10:18:17;;;;;;;1999.90;999.90;;;9.20;99.90;;;;;;5031550;28;20051;-70
2023/12/17 10:20:46;;;;;;;1999.90;999.90;;;9.20;99.90;;;;;;5029709;28;20078;-70
2023/12/17 10:23:13;;;;;;;1999.90;999.90;;;9.20;99.90;;;;;;5039288;28;20037;-70
2023/12/17 10:25:39;;;;;;;1999.90;999.90;;;9.20;99.90;;;;;;5038191;28;20092;-71
2023/12/17 10:28:05;;;;;;;1999.90;999.90;;;9.30;99.90;;;;;;5029631;28;20026;-71
2023/12/17 10:30:33;;;;;;;1999.90;999.90;;;9.30;99.90;;;;;;5041195;28;20048;-70
2023/12/17 10:33:00;;;;;;;1999.90;999.90;;;9.30;99.90;;;;;;5036979;28;20022;-71
2023/12/17 10:35:27;;;;;;;1999.90;999.90;;;9.20;99.90;;;;;;5040374;28;20029;-71
2023/12/17 10:37:58;;;;;;;1999.90;999.90;;;9.20;99.90;;;;;;5037817;28;20025;-71
2023/12/17 10:40:24;;;;;;;1999.90;999.90;;;9.20;99.90;;;;;;5042226;28;20048;-70
2023/12/17 10:42:51;;;;;;;1999.90;999.90;;;9.20;99.90;;;;;;5042214;28;20033;-70
2023/12/17 10:45:19;;;;;;;1999.90;999.90;;;9.10;99.90;;;;;;5044053;28;20048;-70
2023/12/17 10:47:56;;;;;;;1999.90;999.90;;;9.20;99.90;;;;;;5038659;28;20431;-70
2023/12/17 10:50:23;;;;;;;1999.90;999.90;;;9.20;99.90;;;;;;5037462;28;20064;-70
2023/12/17 10:52:49;;;;;;;1999.90;999.90;;;9.20;99.90;;;;;;5030828;28;20029;-71
2023/12/17 10:55:16;;;;;;;1999.90;999.90;;;9.30;99.90;;;;;;5033398;28;20053;-71
2023/12/17 10:57:54;;;;;;;1999.90;999.90;;;9.30;99.90;;;;;;5023310;28;20033;-70
2023/12/17 11:00:23;;;;;;;1999.90;999.90;;;9.30;99.90;;;;;;5035553;28;20047;-71
2023/12/17 11:02:52;;;;;;;1999.90;999.90;;;9.30;99.90;;;;;;5031522;28;20328;-70
2023/12/17 11:05:18;;;;;;;1999.90;999.90;;;9.30;99.90;;;;;;5033108;28;20037;-71
2023/12/17 11:07:44;;;;;;;1999.90;999.90;;;9.20;99.90;;;;;;5032373;28;20029;-70
2023/12/17 11:10:11;;;;;;;1999.90;999.90;;;9.30;99.90;;;;;;5036595;28;20404;-70
2023/12/17 11:12:38;;;;;;;1999.90;999.90;;;9.30;99.90;;;;;;5034955;28;20352;-71
2023/12/17 11:15:04;;;;;;;1999.90;999.90;;;9.30;99.90;;;;;;5034037;28;20025;-71
2023/12/17 11:17:30;;;;;;;1999.90;999.90;;;9.30;99.90;;;;;;5033633;28;20033;-70
2023/12/17 11:19:57;;;;;;;1999.90;999.90;;;9.30;99.90;;;;;;5034184;28;20034;-70
2023/12/17 11:22:24;;;;;;;1999.90;999.90;;;9.30;99.90;;;;;;5033288;28;20030;-70
2023/12/17 11:24:52;;;;;;;1999.90;999.90;;;9.30;99.90;;;;;;5036997;28;20112;-70
2023/12/17 11:27:21;;;;;;;1999.90;999.90;;;9.30;99.90;;;;;;5038406;28;20072;-70
2023/12/17 11:29:47;;;;;;;1999.90;999.90;;;9.40;99.90;;;;;;5036146;28;20021;-70
2023/12/17 11:32:16;;;;;;;1999.90;999.90;;;9.50;99.90;;;;;;5037312;28;20020;-70
2023/12/17 11:34:43;;;;;;;1999.90;999.90;;;9.50;99.90;;;;;;5036834;28;20029;-70
2023/12/17 11:37:10;;;;;;;1999.90;999.90;;;9.40;99.90;;;;;;5031841;28;20033;-70
2023/12/17 11:39:37;;;;;;;1999.90;999.90;;;9.40;99.90;;;;;;5036808;28;20112;-70
2023/12/17 11:42:02;;;;;;;1999.90;999.90;;;9.40;99.90;;;;;;5037778;28;20046;-70
2023/12/17 11:44:28;;;;;;;1999.90;999.90;;;9.40;99.90;;;;;;5039261;28;20091;-70
2023/12/17 11:46:54;;;;;;;1999.90;999.90;;;9.50;99.90;;;;;;5042012;28;20132;-70
2023/12/17 11:49:25;;;;;;;1999.90;999.90;;;9.40;99.90;;;;;;5034938;28;20121;-71
2023/12/17 11:51:53;;;;;;;1999.90;999.90;;;9.40;99.90;;;;;;5034846;28;20061;-70
2023/12/17 11:54:23;;;;;;;1999.90;999.90;;;9.50;99.90;;;;;;5029175;28;20443;-70
2023/12/17 11:56:49;;;;;;;1999.90;999.90;;;9.40;99.90;;;;;;5038769;28;20477;-70
2023/12/17 11:59:15;;;;;;;1999.90;999.90;;;9.40;99.90;;;;;;5028237;28;20025;-70
2023/12/17 12:01:42;;;;;;;1999.90;999.90;;;9.40;99.90;;;;;;5038670;28;20025;-70